sensor_id;sensor_type;location;lat;lon;timestamp;P1;durP1;ratioP1;P2;durP2;ratioP2
22298;SDS011;11317;51.072;17.036;2022-12-07T00:01:28;8.50;;;4.47;;
22298;SDS011;11317;51.072;17.036;2022-12-07T00:03:56;7.63;;;4.22;;
22298;SDS011;11317;51.072;17.036;2022-12-07T00:08:58;6.15;;;3.33;;
22298;SDS011;11317;51.072;17.036;2022-12-07T00:11:24;6.63;;;3.55;;
22298;SDS011;11317;51.072;17.036;2022-12-07T00:13:51;4.70;;;3.33;;
22298;SDS011;11317;51.072;17.036;2022-12-07T00:16:19;6.28;;;3.28;;
22298;SDS011;11317;51.072;17.036;2022-12-07T00:18:46;4.90;;;3.00;;
22298;SDS011;11317;51.072;17.036;2022-12-07T00:21:14;7.65;;;3.88;;
22298;SDS011;11317;51.072;17.036;2022-12-07T00:23:43;4.72;;;2.63;;
22298;SDS011;11317;51.072;17.036;2022-12-07T00:26:10;6.97;;;3.03;;
22298;SDS011;11317;51.072;17.036;2022-12-07T00:28:38;3.55;;;2.30;;
22298;SDS011;11317;51.072;17.036;2022-12-07T00:31:08;3.70;;;2.67;;
22298;SDS011;11317;51.072;17.036;2022-12-07T00:33:36;5.95;;;2.47;;
22298;SDS011;11317;51.072;17.036;2022-12-07T00:36:03;4.00;;;2.55;;
22298;SDS011;11317;51.072;17.036;2022-12-07T00:38:33;3.53;;;2.08;;
22298;SDS011;11317;51.072;17.036;2022-12-07T00:41:02;4.88;;;2.55;;
22298;SDS011;11317;51.072;17.036;2022-12-07T00:43:47;3.45;;;2.15;;
22298;SDS011;11317;51.072;17.036;2022-12-07T00:46:14;2.95;;;2.22;;
22298;SDS011;11317;51.072;17.036;2022-12-07T00:48:41;4.82;;;2.63;;
22298;SDS011;11317;51.072;17.036;2022-12-07T00:51:07;3.70;;;2.65;;
22298;SDS011;11317;51.072;17.036;2022-12-07T00:53:34;5.25;;;2.85;;
22298;SDS011;11317;51.072;17.036;2022-12-07T00:56:07;3.47;;;2.45;;
22298;SDS011;11317;51.072;17.036;2022-12-07T00:58:40;3.75;;;2.20;;
22298;SDS011;11317;51.072;17.036;2022-12-07T01:01:06;5.00;;;2.10;;
22298;SDS011;11317;51.072;17.036;2022-12-07T01:03:33;4.40;;;2.38;;
22298;SDS011;11317;51.072;17.036;2022-12-07T01:05:59;4.07;;;2.22;;
22298;SDS011;11317;51.072;17.036;2022-12-07T01:08:26;2.47;;;1.80;;
22298;SDS011;11317;51.072;17.036;2022-12-07T01:11:02;5.18;;;2.10;;
22298;SDS011;11317;51.072;17.036;2022-12-07T01:13:30;3.33;;;2.22;;
22298;SDS011;11317;51.072;17.036;2022-12-07T01:16:00;2.10;;;1.90;;
22298;SDS011;11317;51.072;17.036;2022-12-07T01:18:28;3.63;;;1.77;;
22298;SDS011;11317;51.072;17.036;2022-12-07T01:23:29;3.15;;;1.95;;
22298;SDS011;11317;51.072;17.036;2022-12-07T01:25:56;2.15;;;1.60;;
22298;SDS011;11317;51.072;17.036;2022-12-07T01:28:23;2.67;;;2.00;;
22298;SDS011;11317;51.072;17.036;2022-12-07T01:30:56;3.15;;;1.77;;
22298;SDS011;11317;51.072;17.036;2022-12-07T01:33:23;2.72;;;1.63;;
22298;SDS011;11317;51.072;17.036;2022-12-07T01:35:49;2.55;;;1.75;;
22298;SDS011;11317;51.072;17.036;2022-12-07T01:38:15;1.40;;;1.30;;
22298;SDS011;11317;51.072;17.036;2022-12-07T01:40:41;2.53;;;1.70;;
22298;SDS011;11317;51.072;17.036;2022-12-07T01:43:14;3.03;;;1.75;;
22298;SDS011;11317;51.072;17.036;2022-12-07T01:45:49;1.58;;;1.48;;
22298;SDS011;11317;51.072;17.036;2022-12-07T01:48:15;2.03;;;1.58;;
22298;SDS011;11317;51.072;17.036;2022-12-07T01:50:43;4.75;;;1.50;;
22298;SDS011;11317;51.072;17.036;2022-12-07T01:53:12;4.40;;;1.85;;
22298;SDS011;11317;51.072;17.036;2022-12-07T01:55:40;2.05;;;1.52;;
22298;SDS011;11317;51.072;17.036;2022-12-07T01:58:09;2.50;;;1.63;;
22298;SDS011;11317;51.072;17.036;2022-12-07T02:00:36;3.22;;;1.50;;
22298;SDS011;11317;51.072;17.036;2022-12-07T02:03:11;2.33;;;1.65;;
22298;SDS011;11317;51.072;17.036;2022-12-07T02:05:59;1.45;;;1.30;;
22298;SDS011;11317;51.072;17.036;2022-12-07T02:08:25;1.55;;;1.25;;
22298;SDS011;11317;51.072;17.036;2022-12-07T02:10:51;3.92;;;1.90;;
22298;SDS011;11317;51.072;17.036;2022-12-07T02:13:24;3.10;;;1.20;;
22298;SDS011;11317;51.072;17.036;2022-12-07T02:15:59;2.33;;;1.40;;
22298;SDS011;11317;51.072;17.036;2022-12-07T02:27:38;3.28;;;1.23;;
22298;SDS011;11317;51.072;17.036;2022-12-07T02:30:13;2.17;;;1.20;;
22298;SDS011;11317;51.072;17.036;2022-12-07T02:32:43;3.22;;;1.20;;
22298;SDS011;11317;51.072;17.036;2022-12-07T02:35:15;2.15;;;1.38;;
22298;SDS011;11317;51.072;17.036;2022-12-07T02:43:04;0.70;;;0.70;;
22298;SDS011;11317;51.072;17.036;2022-12-07T02:45:54;2.00;;;1.10;;
22298;SDS011;11317;51.072;17.036;2022-12-07T02:48:23;0.73;;;0.73;;
22298;SDS011;11317;51.072;17.036;2022-12-07T02:50:51;1.70;;;1.00;;
22298;SDS011;11317;51.072;17.036;2022-12-07T02:53:28;2.97;;;1.33;;
22298;SDS011;11317;51.072;17.036;2022-12-07T02:55:53;0.93;;;0.90;;
22298;SDS011;11317;51.072;17.036;2022-12-07T02:58:25;1.60;;;1.25;;
22298;SDS011;11317;51.072;17.036;2022-12-07T03:01:04;1.70;;;1.20;;
22298;SDS011;11317;51.072;17.036;2022-12-07T03:03:30;3.65;;;1.48;;
22298;SDS011;11317;51.072;17.036;2022-12-07T03:05:59;1.52;;;1.13;;
22298;SDS011;11317;51.072;17.036;2022-12-07T03:08:51;1.58;;;0.98;;
22298;SDS011;11317;51.072;17.036;2022-12-07T03:11:33;2.97;;;1.25;;
22298;SDS011;11317;51.072;17.036;2022-12-07T03:14:15;1.85;;;1.17;;
22298;SDS011;11317;51.072;17.036;2022-12-07T03:17:00;1.75;;;1.50;;
22298;SDS011;11317;51.072;17.036;2022-12-07T03:19:37;1.52;;;1.35;;
22298;SDS011;11317;51.072;17.036;2022-12-07T03:22:08;1.20;;;1.00;;
22298;SDS011;11317;51.072;17.036;2022-12-07T03:24:39;1.50;;;1.40;;
22298;SDS011;11317;51.072;17.036;2022-12-07T03:27:11;1.52;;;1.25;;
22298;SDS011;11317;51.072;17.036;2022-12-07T03:29:58;1.83;;;1.42;;
22298;SDS011;11317;51.072;17.036;2022-12-07T03:32:31;3.50;;;1.50;;
22298;SDS011;11317;51.072;17.036;2022-12-07T03:35:18;1.83;;;1.30;;
22298;SDS011;11317;51.072;17.036;2022-12-07T03:37:57;1.83;;;1.35;;
22298;SDS011;11317;51.072;17.036;2022-12-07T03:40:39;2.00;;;1.52;;
22298;SDS011;11317;51.072;17.036;2022-12-07T03:43:09;1.08;;;0.98;;
22298;SDS011;11317;51.072;17.036;2022-12-07T03:45:43;1.30;;;1.20;;
22298;SDS011;11317;51.072;17.036;2022-12-07T03:48:27;1.23;;;1.02;;
22298;SDS011;11317;51.072;17.036;2022-12-07T03:56:21;2.13;;;1.20;;
22298;SDS011;11317;51.072;17.036;2022-12-07T03:58:48;1.90;;;1.52;;
22298;SDS011;11317;51.072;17.036;2022-12-07T04:01:14;1.38;;;1.27;;
22298;SDS011;11317;51.072;17.036;2022-12-07T04:03:40;1.50;;;1.40;;
22298;SDS011;11317;51.072;17.036;2022-12-07T04:06:06;2.03;;;1.50;;
22298;SDS011;11317;51.072;17.036;2022-12-07T04:08:33;1.33;;;1.23;;
22298;SDS011;11317;51.072;17.036;2022-12-07T04:10:59;1.55;;;1.30;;
22298;SDS011;11317;51.072;17.036;2022-12-07T04:13:25;3.15;;;1.65;;
22298;SDS011;11317;51.072;17.036;2022-12-07T04:15:51;2.33;;;1.45;;
22298;SDS011;11317;51.072;17.036;2022-12-07T04:18:17;2.03;;;1.48;;
22298;SDS011;11317;51.072;17.036;2022-12-07T04:20:43;1.92;;;1.40;;
22298;SDS011;11317;51.072;17.036;2022-12-07T04:23:09;4.13;;;1.67;;
22298;SDS011;11317;51.072;17.036;2022-12-07T04:25:35;1.77;;;1.65;;
22298;SDS011;11317;51.072;17.036;2022-12-07T04:28:01;2.60;;;1.48;;
22298;SDS011;11317;51.072;17.036;2022-12-07T04:30:27;3.28;;;1.52;;
22298;SDS011;11317;51.072;17.036;2022-12-07T04:32:53;2.60;;;1.80;;
22298;SDS011;11317;51.072;17.036;2022-12-07T04:35:20;2.28;;;1.73;;
22298;SDS011;11317;51.072;17.036;2022-12-07T04:37:45;1.77;;;1.30;;
22298;SDS011;11317;51.072;17.036;2022-12-07T04:40:12;2.17;;;1.63;;
22298;SDS011;11317;51.072;17.036;2022-12-07T04:42:39;2.75;;;1.45;;
22298;SDS011;11317;51.072;17.036;2022-12-07T04:45:05;1.88;;;1.40;;
22298;SDS011;11317;51.072;17.036;2022-12-07T04:47:31;3.10;;;1.88;;
22298;SDS011;11317;51.072;17.036;2022-12-07T04:49:58;2.55;;;1.70;;
22298;SDS011;11317;51.072;17.036;2022-12-07T04:52:24;2.30;;;1.90;;
22298;SDS011;11317;51.072;17.036;2022-12-07T04:54:50;2.45;;;1.85;;
22298;SDS011;11317;51.072;17.036;2022-12-07T04:57:16;3.20;;;2.00;;
22298;SDS011;11317;51.072;17.036;2022-12-07T04:59:42;3.63;;;2.08;;
22298;SDS011;11317;51.072;17.036;2022-12-07T05:02:08;2.10;;;1.85;;
22298;SDS011;11317;51.072;17.036;2022-12-07T05:04:34;3.38;;;1.92;;
22298;SDS011;11317;51.072;17.036;2022-12-07T05:07:00;2.72;;;1.80;;
22298;SDS011;11317;51.072;17.036;2022-12-07T05:09:26;2.58;;;1.80;;
22298;SDS011;11317;51.072;17.036;2022-12-07T05:11:52;3.58;;;2.00;;
22298;SDS011;11317;51.072;17.036;2022-12-07T05:14:19;3.50;;;2.10;;
22298;SDS011;11317;51.072;17.036;2022-12-07T05:16:46;5.05;;;1.80;;
22298;SDS011;11317;51.072;17.036;2022-12-07T05:19:14;3.30;;;2.13;;
22298;SDS011;11317;51.072;17.036;2022-12-07T05:21:40;4.35;;;2.72;;
22298;SDS011;11317;51.072;17.036;2022-12-07T05:24:07;3.80;;;2.17;;
22298;SDS011;11317;51.072;17.036;2022-12-07T05:26:34;3.08;;;1.80;;
22298;SDS011;11317;51.072;17.036;2022-12-07T05:29:00;3.50;;;2.03;;
22298;SDS011;11317;51.072;17.036;2022-12-07T05:31:26;4.13;;;2.00;;
22298;SDS011;11317;51.072;17.036;2022-12-07T05:33:53;3.53;;;1.90;;
22298;SDS011;11317;51.072;17.036;2022-12-07T05:36:19;4.30;;;2.35;;
22298;SDS011;11317;51.072;17.036;2022-12-07T05:38:45;8.70;;;2.80;;
22298;SDS011;11317;51.072;17.036;2022-12-07T05:41:12;4.63;;;3.00;;
22298;SDS011;11317;51.072;17.036;2022-12-07T05:43:59;7.75;;;2.55;;
22298;SDS011;11317;51.072;17.036;2022-12-07T05:46:25;6.18;;;2.70;;
22298;SDS011;11317;51.072;17.036;2022-12-07T05:48:52;6.03;;;3.40;;
22298;SDS011;11317;51.072;17.036;2022-12-07T05:51:18;8.27;;;4.60;;
22298;SDS011;11317;51.072;17.036;2022-12-07T05:53:44;8.15;;;3.95;;
22298;SDS011;11317;51.072;17.036;2022-12-07T05:56:10;13.90;;;4.85;;
22298;SDS011;11317;51.072;17.036;2022-12-07T05:58:36;8.52;;;4.45;;
22298;SDS011;11317;51.072;17.036;2022-12-07T06:01:21;14.75;;;5.28;;
22298;SDS011;11317;51.072;17.036;2022-12-07T06:03:47;11.57;;;5.30;;
22298;SDS011;11317;51.072;17.036;2022-12-07T06:06:13;10.63;;;5.18;;
22298;SDS011;11317;51.072;17.036;2022-12-07T06:08:39;13.65;;;5.30;;
22298;SDS011;11317;51.072;17.036;2022-12-07T06:11:05;8.57;;;4.38;;
22298;SDS011;11317;51.072;17.036;2022-12-07T06:13:50;11.98;;;5.30;;
22298;SDS011;11317;51.072;17.036;2022-12-07T06:16:16;13.25;;;5.88;;
22298;SDS011;11317;51.072;17.036;2022-12-07T06:18:42;11.68;;;5.43;;
22298;SDS011;11317;51.072;17.036;2022-12-07T06:21:08;13.48;;;5.72;;
22298;SDS011;11317;51.072;17.036;2022-12-07T06:23:34;12.70;;;6.47;;
22298;SDS011;11317;51.072;17.036;2022-12-07T06:26:00;11.38;;;6.18;;
22298;SDS011;11317;51.072;17.036;2022-12-07T06:28:26;13.52;;;6.03;;
22298;SDS011;11317;51.072;17.036;2022-12-07T06:30:58;13.82;;;6.35;;
22298;SDS011;11317;51.072;17.036;2022-12-07T06:33:25;13.20;;;4.90;;
22298;SDS011;11317;51.072;17.036;2022-12-07T06:35:51;11.30;;;5.32;;
22298;SDS011;11317;51.072;17.036;2022-12-07T06:38:17;12.32;;;6.05;;
22298;SDS011;11317;51.072;17.036;2022-12-07T06:40:43;13.00;;;5.70;;
22298;SDS011;11317;51.072;17.036;2022-12-07T06:43:09;14.30;;;5.82;;
22298;SDS011;11317;51.072;17.036;2022-12-07T06:45:35;12.68;;;5.47;;
22298;SDS011;11317;51.072;17.036;2022-12-07T06:48:01;16.75;;;6.57;;
22298;SDS011;11317;51.072;17.036;2022-12-07T06:50:27;13.75;;;6.00;;
22298;SDS011;11317;51.072;17.036;2022-12-07T06:52:53;15.20;;;6.60;;
22298;SDS011;11317;51.072;17.036;2022-12-07T06:55:19;13.40;;;6.32;;
22298;SDS011;11317;51.072;17.036;2022-12-07T06:57:45;18.50;;;6.15;;
22298;SDS011;11317;51.072;17.036;2022-12-07T07:00:11;15.20;;;6.18;;
22298;SDS011;11317;51.072;17.036;2022-12-07T07:02:37;11.85;;;6.03;;
22298;SDS011;11317;51.072;17.036;2022-12-07T07:05:05;13.95;;;5.85;;
22298;SDS011;11317;51.072;17.036;2022-12-07T07:07:31;11.95;;;4.90;;
22298;SDS011;11317;51.072;17.036;2022-12-07T07:09:57;15.45;;;5.93;;
22298;SDS011;11317;51.072;17.036;2022-12-07T07:12:23;14.27;;;6.63;;
22298;SDS011;11317;51.072;17.036;2022-12-07T07:14:49;11.68;;;5.43;;
22298;SDS011;11317;51.072;17.036;2022-12-07T07:17:15;12.55;;;5.85;;
22298;SDS011;11317;51.072;17.036;2022-12-07T07:19:41;13.85;;;6.10;;
22298;SDS011;11317;51.072;17.036;2022-12-07T07:22:07;17.85;;;5.75;;
22298;SDS011;11317;51.072;17.036;2022-12-07T07:24:33;14.70;;;6.13;;
22298;SDS011;11317;51.072;17.036;2022-12-07T07:26:59;13.52;;;5.95;;
22298;SDS011;11317;51.072;17.036;2022-12-07T07:29:26;12.98;;;5.28;;
22298;SDS011;11317;51.072;17.036;2022-12-07T07:31:52;14.63;;;6.15;;
22298;SDS011;11317;51.072;17.036;2022-12-07T07:34:18;12.60;;;5.70;;
22298;SDS011;11317;51.072;17.036;2022-12-07T07:36:44;13.10;;;5.75;;
22298;SDS011;11317;51.072;17.036;2022-12-07T07:39:10;12.57;;;5.65;;
22298;SDS011;11317;51.072;17.036;2022-12-07T07:41:37;11.95;;;5.80;;
22298;SDS011;11317;51.072;17.036;2022-12-07T07:44:03;10.70;;;5.38;;
22298;SDS011;11317;51.072;17.036;2022-12-07T07:46:29;10.68;;;5.88;;
22298;SDS011;11317;51.072;17.036;2022-12-07T07:48:58;13.48;;;5.88;;
22298;SDS011;11317;51.072;17.036;2022-12-07T07:51:24;11.93;;;5.60;;
22298;SDS011;11317;51.072;17.036;2022-12-07T07:53:50;11.20;;;5.55;;
22298;SDS011;11317;51.072;17.036;2022-12-07T07:56:15;12.98;;;5.70;;
22298;SDS011;11317;51.072;17.036;2022-12-07T07:58:41;12.35;;;5.68;;
22298;SDS011;11317;51.072;17.036;2022-12-07T08:01:07;13.23;;;5.53;;
22298;SDS011;11317;51.072;17.036;2022-12-07T08:03:33;10.52;;;5.40;;
22298;SDS011;11317;51.072;17.036;2022-12-07T08:06:01;9.63;;;5.18;;
22298;SDS011;11317;51.072;17.036;2022-12-07T08:08:28;11.55;;;4.53;;
22298;SDS011;11317;51.072;17.036;2022-12-07T08:10:54;10.70;;;5.82;;
22298;SDS011;11317;51.072;17.036;2022-12-07T08:13:20;8.55;;;4.72;;
22298;SDS011;11317;51.072;17.036;2022-12-07T08:15:47;10.05;;;5.45;;
22298;SDS011;11317;51.072;17.036;2022-12-07T08:18:13;11.38;;;4.78;;
22298;SDS011;11317;51.072;17.036;2022-12-07T08:20:40;8.60;;;5.10;;
22298;SDS011;11317;51.072;17.036;2022-12-07T08:23:06;10.02;;;4.90;;
22298;SDS011;11317;51.072;17.036;2022-12-07T08:25:33;10.65;;;5.65;;
22298;SDS011;11317;51.072;17.036;2022-12-07T08:28:00;9.73;;;5.40;;
22298;SDS011;11317;51.072;17.036;2022-12-07T08:30:26;10.40;;;4.57;;
22298;SDS011;11317;51.072;17.036;2022-12-07T08:32:53;6.82;;;4.55;;
22298;SDS011;11317;51.072;17.036;2022-12-07T08:35:19;10.57;;;5.03;;
22298;SDS011;11317;51.072;17.036;2022-12-07T08:37:46;9.52;;;4.82;;
22298;SDS011;11317;51.072;17.036;2022-12-07T08:40:12;9.75;;;5.07;;
22298;SDS011;11317;51.072;17.036;2022-12-07T08:42:43;13.05;;;5.38;;
22298;SDS011;11317;51.072;17.036;2022-12-07T08:45:12;10.27;;;5.03;;
22298;SDS011;11317;51.072;17.036;2022-12-07T08:47:44;11.88;;;5.28;;
22298;SDS011;11317;51.072;17.036;2022-12-07T08:50:20;8.43;;;4.70;;
22298;SDS011;11317;51.072;17.036;2022-12-07T08:52:53;10.30;;;5.40;;
22298;SDS011;11317;51.072;17.036;2022-12-07T08:55:21;7.90;;;5.35;;
22298;SDS011;11317;51.072;17.036;2022-12-07T08:57:48;10.23;;;5.43;;
22298;SDS011;11317;51.072;17.036;2022-12-07T09:00:14;9.80;;;5.55;;
22298;SDS011;11317;51.072;17.036;2022-12-07T09:02:42;8.57;;;4.63;;
22298;SDS011;11317;51.072;17.036;2022-12-07T09:05:09;7.30;;;4.43;;
22298;SDS011;11317;51.072;17.036;2022-12-07T09:07:35;9.38;;;5.82;;
22298;SDS011;11317;51.072;17.036;2022-12-07T09:10:02;6.28;;;4.18;;
22298;SDS011;11317;51.072;17.036;2022-12-07T09:12:29;8.45;;;5.30;;
22298;SDS011;11317;51.072;17.036;2022-12-07T09:14:55;6.10;;;4.22;;
22298;SDS011;11317;51.072;17.036;2022-12-07T09:17:22;5.82;;;3.83;;
22298;SDS011;11317;51.072;17.036;2022-12-07T09:19:48;5.85;;;3.85;;
22298;SDS011;11317;51.072;17.036;2022-12-07T09:22:14;6.00;;;3.90;;
22298;SDS011;11317;51.072;17.036;2022-12-07T09:24:40;7.63;;;4.18;;
22298;SDS011;11317;51.072;17.036;2022-12-07T09:27:06;6.93;;;4.18;;
22298;SDS011;11317;51.072;17.036;2022-12-07T09:29:31;5.45;;;3.90;;
22298;SDS011;11317;51.072;17.036;2022-12-07T09:31:57;6.30;;;3.75;;
22298;SDS011;11317;51.072;17.036;2022-12-07T09:34:23;6.35;;;3.90;;
22298;SDS011;11317;51.072;17.036;2022-12-07T09:36:51;6.75;;;3.63;;
22298;SDS011;11317;51.072;17.036;2022-12-07T09:39:17;4.60;;;3.17;;
22298;SDS011;11317;51.072;17.036;2022-12-07T09:41:43;5.40;;;3.75;;
22298;SDS011;11317;51.072;17.036;2022-12-07T09:44:14;6.00;;;3.70;;
22298;SDS011;11317;51.072;17.036;2022-12-07T09:46:45;5.57;;;3.80;;
22298;SDS011;11317;51.072;17.036;2022-12-07T09:49:12;7.65;;;3.70;;
22298;SDS011;11317;51.072;17.036;2022-12-07T09:51:43;6.85;;;3.95;;
22298;SDS011;11317;51.072;17.036;2022-12-07T09:54:13;7.10;;;3.80;;
22298;SDS011;11317;51.072;17.036;2022-12-07T09:56:40;11.35;;;4.57;;
22298;SDS011;11317;51.072;17.036;2022-12-07T09:59:09;7.40;;;3.85;;
22298;SDS011;11317;51.072;17.036;2022-12-07T10:01:46;5.70;;;3.65;;
22298;SDS011;11317;51.072;17.036;2022-12-07T10:04:24;6.28;;;3.35;;
22298;SDS011;11317;51.072;17.036;2022-12-07T10:06:52;8.90;;;4.22;;
22298;SDS011;11317;51.072;17.036;2022-12-07T10:09:19;6.13;;;3.67;;
22298;SDS011;11317;51.072;17.036;2022-12-07T10:12:06;7.65;;;4.30;;
22298;SDS011;11317;51.072;17.036;2022-12-07T10:14:40;10.00;;;5.03;;
22298;SDS011;11317;51.072;17.036;2022-12-07T10:17:37;8.00;;;4.43;;
22298;SDS011;11317;51.072;17.036;2022-12-07T10:22:38;8.95;;;4.32;;
22298;SDS011;11317;51.072;17.036;2022-12-07T10:25:25;8.15;;;5.03;;
22298;SDS011;11317;51.072;17.036;2022-12-07T10:27:57;11.15;;;5.47;;
22298;SDS011;11317;51.072;17.036;2022-12-07T10:31:20;7.97;;;4.40;;
22298;SDS011;11317;51.072;17.036;2022-12-07T10:36:17;8.60;;;4.40;;
22298;SDS011;11317;51.072;17.036;2022-12-07T10:38:49;10.30;;;4.75;;
22298;SDS011;11317;51.072;17.036;2022-12-07T10:41:18;6.45;;;3.95;;
22298;SDS011;11317;51.072;17.036;2022-12-07T10:43:49;7.68;;;4.25;;
22298;SDS011;11317;51.072;17.036;2022-12-07T10:46:24;8.50;;;3.67;;
22298;SDS011;11317;51.072;17.036;2022-12-07T10:51:38;7.05;;;3.25;;
22298;SDS011;11317;51.072;17.036;2022-12-07T10:54:17;8.88;;;3.17;;
22298;SDS011;11317;51.072;17.036;2022-12-07T11:06:57;3.42;;;2.03;;
22298;SDS011;11317;51.072;17.036;2022-12-07T11:18:00;2.33;;;1.80;;
22298;SDS011;11317;51.072;17.036;2022-12-07T11:23:13;3.33;;;2.05;;
22298;SDS011;11317;51.072;17.036;2022-12-07T11:28:26;3.97;;;1.95;;
22298;SDS011;11317;51.072;17.036;2022-12-07T11:31:15;5.45;;;2.35;;
22298;SDS011;11317;51.072;17.036;2022-12-07T11:33:47;3.22;;;2.25;;
22298;SDS011;11317;51.072;17.036;2022-12-07T11:36:30;2.63;;;2.10;;
22298;SDS011;11317;51.072;17.036;2022-12-07T11:38:58;3.05;;;2.15;;
22298;SDS011;11317;51.072;17.036;2022-12-07T11:41:31;3.90;;;2.50;;
22298;SDS011;11317;51.072;17.036;2022-12-07T11:46:29;3.60;;;2.25;;
22298;SDS011;11317;51.072;17.036;2022-12-07T11:51:51;2.83;;;1.70;;
22298;SDS011;11317;51.072;17.036;2022-12-07T11:54:26;4.65;;;2.00;;
22298;SDS011;11317;51.072;17.036;2022-12-07T11:56:56;3.83;;;1.85;;
22298;SDS011;11317;51.072;17.036;2022-12-07T11:59:33;2.35;;;1.48;;
22298;SDS011;11317;51.072;17.036;2022-12-07T12:02:15;3.58;;;1.80;;
22298;SDS011;11317;51.072;17.036;2022-12-07T12:04:49;3.40;;;2.45;;
22298;SDS011;11317;51.072;17.036;2022-12-07T12:07:35;3.20;;;2.20;;
22298;SDS011;11317;51.072;17.036;2022-12-07T12:10:26;3.58;;;1.90;;
22298;SDS011;11317;51.072;17.036;2022-12-07T12:18:32;3.92;;;2.00;;
22298;SDS011;11317;51.072;17.036;2022-12-07T12:21:19;3.70;;;2.33;;
22298;SDS011;11317;51.072;17.036;2022-12-07T12:23:54;3.50;;;2.55;;
22298;SDS011;11317;51.072;17.036;2022-12-07T12:26:27;5.43;;;2.65;;
22298;SDS011;11317;51.072;17.036;2022-12-07T12:28:56;3.97;;;2.00;;
22298;SDS011;11317;51.072;17.036;2022-12-07T12:31:46;3.17;;;2.00;;
22298;SDS011;11317;51.072;17.036;2022-12-07T12:34:38;3.45;;;1.98;;
22298;SDS011;11317;51.072;17.036;2022-12-07T12:37:38;4.13;;;2.03;;
22298;SDS011;11317;51.072;17.036;2022-12-07T12:42:50;3.60;;;2.17;;
22298;SDS011;11317;51.072;17.036;2022-12-07T12:45:19;4.47;;;2.63;;
22298;SDS011;11317;51.072;17.036;2022-12-07T12:50:32;2.80;;;2.13;;
22298;SDS011;11317;51.072;17.036;2022-12-07T12:53:12;4.32;;;2.30;;
22298;SDS011;11317;51.072;17.036;2022-12-07T12:55:54;2.22;;;1.77;;
22298;SDS011;11317;51.072;17.036;2022-12-07T12:58:37;7.07;;;2.35;;
22298;SDS011;11317;51.072;17.036;2022-12-07T13:04:02;3.22;;;1.67;;
22298;SDS011;11317;51.072;17.036;2022-12-07T13:06:39;3.05;;;2.15;;
22298;SDS011;11317;51.072;17.036;2022-12-07T13:09:15;6.15;;;2.80;;
22298;SDS011;11317;51.072;17.036;2022-12-07T13:11:46;4.03;;;2.28;;
22298;SDS011;11317;51.072;17.036;2022-12-07T13:17:10;3.88;;;2.22;;
22298;SDS011;11317;51.072;17.036;2022-12-07T13:25:41;4.63;;;2.25;;
22298;SDS011;11317;51.072;17.036;2022-12-07T13:28:00;4.35;;;1.92;;
22298;SDS011;11317;51.072;17.036;2022-12-07T13:30:34;7.15;;;2.92;;
22298;SDS011;11317;51.072;17.036;2022-12-07T13:33:32;6.82;;;3.22;;
22298;SDS011;11317;51.072;17.036;2022-12-07T13:36:01;7.03;;;3.33;;
22298;SDS011;11317;51.072;17.036;2022-12-07T13:38:34;6.40;;;3.00;;
22298;SDS011;11317;51.072;17.036;2022-12-07T13:43:29;4.80;;;2.90;;
22298;SDS011;11317;51.072;17.036;2022-12-07T13:45:56;3.63;;;2.47;;
22298;SDS011;11317;51.072;17.036;2022-12-07T13:51:23;3.65;;;2.70;;
22298;SDS011;11317;51.072;17.036;2022-12-07T13:53:55;5.80;;;3.00;;
22298;SDS011;11317;51.072;17.036;2022-12-07T13:56:31;5.07;;;2.72;;
22298;SDS011;11317;51.072;17.036;2022-12-07T14:01:26;4.85;;;2.58;;
22298;SDS011;11317;51.072;17.036;2022-12-07T14:03:52;6.63;;;3.30;;
22298;SDS011;11317;51.072;17.036;2022-12-07T14:08:44;4.30;;;2.78;;
22298;SDS011;11317;51.072;17.036;2022-12-07T14:11:19;8.38;;;3.50;;
22298;SDS011;11317;51.072;17.036;2022-12-07T14:13:58;4.82;;;2.78;;
22298;SDS011;11317;51.072;17.036;2022-12-07T14:18:53;5.13;;;2.80;;
22298;SDS011;11317;51.072;17.036;2022-12-07T14:21:25;4.88;;;2.58;;
22298;SDS011;11317;51.072;17.036;2022-12-07T14:26:48;5.13;;;2.78;;
22298;SDS011;11317;51.072;17.036;2022-12-07T14:29:18;4.90;;;2.88;;
22298;SDS011;11317;51.072;17.036;2022-12-07T14:31:44;4.65;;;3.17;;
22298;SDS011;11317;51.072;17.036;2022-12-07T14:34:13;7.40;;;3.63;;
22298;SDS011;11317;51.072;17.036;2022-12-07T14:36:39;3.88;;;2.58;;
22298;SDS011;11317;51.072;17.036;2022-12-07T14:39:05;6.80;;;3.55;;
22298;SDS011;11317;51.072;17.036;2022-12-07T14:41:31;5.93;;;3.00;;
22298;SDS011;11317;51.072;17.036;2022-12-07T14:44:15;11.38;;;4.25;;
22298;SDS011;11317;51.072;17.036;2022-12-07T14:46:42;3.85;;;2.60;;
22298;SDS011;11317;51.072;17.036;2022-12-07T14:49:08;6.30;;;3.50;;
22298;SDS011;11317;51.072;17.036;2022-12-07T14:51:36;8.10;;;2.65;;
22298;SDS011;11317;51.072;17.036;2022-12-07T14:54:04;4.25;;;2.38;;
22298;SDS011;11317;51.072;17.036;2022-12-07T14:56:31;4.63;;;3.35;;
22298;SDS011;11317;51.072;17.036;2022-12-07T14:58:57;6.38;;;3.53;;
22298;SDS011;11317;51.072;17.036;2022-12-07T15:01:23;4.70;;;2.50;;
22298;SDS011;11317;51.072;17.036;2022-12-07T15:03:49;5.40;;;2.83;;
22298;SDS011;11317;51.072;17.036;2022-12-07T15:06:16;4.90;;;2.97;;
22298;SDS011;11317;51.072;17.036;2022-12-07T15:08:43;4.70;;;2.95;;
22298;SDS011;11317;51.072;17.036;2022-12-07T15:11:15;4.03;;;2.58;;
22298;SDS011;11317;51.072;17.036;2022-12-07T15:13:43;5.90;;;2.67;;
22298;SDS011;11317;51.072;17.036;2022-12-07T15:16:27;4.00;;;2.70;;
22298;SDS011;11317;51.072;17.036;2022-12-07T15:18:53;5.85;;;3.28;;
22298;SDS011;11317;51.072;17.036;2022-12-07T15:21:19;6.00;;;3.10;;
22298;SDS011;11317;51.072;17.036;2022-12-07T15:23:48;6.38;;;3.95;;
22298;SDS011;11317;51.072;17.036;2022-12-07T15:26:14;5.22;;;2.85;;
22298;SDS011;11317;51.072;17.036;2022-12-07T15:28:40;6.28;;;2.95;;
22298;SDS011;11317;51.072;17.036;2022-12-07T15:31:13;6.07;;;3.20;;
22298;SDS011;11317;51.072;17.036;2022-12-07T15:33:40;6.13;;;2.80;;
22298;SDS011;11317;51.072;17.036;2022-12-07T15:36:06;4.07;;;2.50;;
22298;SDS011;11317;51.072;17.036;2022-12-07T15:38:32;5.28;;;2.80;;
22298;SDS011;11317;51.072;17.036;2022-12-07T15:40:58;7.25;;;2.70;;
22298;SDS011;11317;51.072;17.036;2022-12-07T15:43:24;6.97;;;3.58;;
22298;SDS011;11317;51.072;17.036;2022-12-07T15:46:10;6.75;;;3.58;;
22298;SDS011;11317;51.072;17.036;2022-12-07T15:48:36;6.00;;;3.45;;
22298;SDS011;11317;51.072;17.036;2022-12-07T15:51:06;9.52;;;3.42;;
22298;SDS011;11317;51.072;17.036;2022-12-07T15:53:33;5.43;;;3.13;;
22298;SDS011;11317;51.072;17.036;2022-12-07T15:56:00;10.55;;;4.30;;
22298;SDS011;11317;51.072;17.036;2022-12-07T15:58:26;6.07;;;3.83;;
22298;SDS011;11317;51.072;17.036;2022-12-07T16:00:52;6.57;;;3.78;;
22298;SDS011;11317;51.072;17.036;2022-12-07T16:03:18;7.43;;;4.28;;
22298;SDS011;11317;51.072;17.036;2022-12-07T16:05:50;7.38;;;4.22;;
22298;SDS011;11317;51.072;17.036;2022-12-07T16:08:17;4.22;;;3.33;;
22298;SDS011;11317;51.072;17.036;2022-12-07T16:10:43;5.63;;;3.75;;
22298;SDS011;11317;51.072;17.036;2022-12-07T16:13:11;10.13;;;4.90;;
22298;SDS011;11317;51.072;17.036;2022-12-07T16:15:42;14.80;;;5.35;;
22298;SDS011;11317;51.072;17.036;2022-12-07T16:18:08;6.35;;;3.95;;
22298;SDS011;11317;51.072;17.036;2022-12-07T16:20:34;9.35;;;4.40;;
22298;SDS011;11317;51.072;17.036;2022-12-07T16:23:00;9.93;;;4.07;;
22298;SDS011;11317;51.072;17.036;2022-12-07T16:25:26;5.40;;;3.55;;
22298;SDS011;11317;51.072;17.036;2022-12-07T16:27:52;5.22;;;3.55;;